sensor_id;sensor_type;location;lat;lon;timestamp;P1;durP1;ratioP1;P2;durP2;ratioP2
39218;SDS011;24934;52.752;6.964;2023-04-24T00:00:36;18.90;;;17.40;;
39218;SDS011;24934;52.752;6.964;2023-04-24T00:03:03;21.77;;;19.97;;
39218;SDS011;24934;52.752;6.964;2023-04-24T00:05:28;20.80;;;19.10;;
39218;SDS011;24934;52.752;6.964;2023-04-24T00:07:54;19.73;;;18.23;;
39218;SDS011;24934;52.752;6.964;2023-04-24T00:10:22;20.80;;;19.20;;
39218;SDS011;24934;52.752;6.964;2023-04-24T00:12:50;20.40;;;18.80;;
39218;SDS011;24934;52.752;6.964;2023-04-24T00:15:16;20.57;;;18.97;;
39218;SDS011;24934;52.752;6.964;2023-04-24T00:17:44;21.23;;;19.47;;
39218;SDS011;24934;52.752;6.964;2023-04-24T00:20:11;19.70;;;18.20;;
39218;SDS011;24934;52.752;6.964;2023-04-24T00:22:36;20.90;;;19.20;;
39218;SDS011;24934;52.752;6.964;2023-04-24T00:25:02;20.03;;;18.53;;
39218;SDS011;24934;52.752;6.964;2023-04-24T00:27:28;19.37;;;17.97;;
39218;SDS011;24934;52.752;6.964;2023-04-24T00:29:53;18.97;;;17.47;;
39218;SDS011;24934;52.752;6.964;2023-04-24T00:32:19;17.60;;;16.20;;
39218;SDS011;24934;52.752;6.964;2023-04-24T00:34:45;19.00;;;17.60;;
39218;SDS011;24934;52.752;6.964;2023-04-24T00:37:10;19.03;;;17.53;;
39218;SDS011;24934;52.752;6.964;2023-04-24T00:39:36;17.50;;;16.20;;
39218;SDS011;24934;52.752;6.964;2023-04-24T00:42:02;17.37;;;16.13;;
39218;SDS011;24934;52.752;6.964;2023-04-24T00:44:31;17.10;;;15.90;;
39218;SDS011;24934;52.752;6.964;2023-04-24T00:47:00;17.87;;;16.30;;
39218;SDS011;24934;52.752;6.964;2023-04-24T00:49:26;18.00;;;16.70;;
39218;SDS011;24934;52.752;6.964;2023-04-24T00:51:52;18.90;;;17.40;;
39218;SDS011;24934;52.752;6.964;2023-04-24T00:54:18;18.80;;;17.20;;
39218;SDS011;24934;52.752;6.964;2023-04-24T00:56:44;19.80;;;18.27;;
39218;SDS011;24934;52.752;6.964;2023-04-24T00:59:11;19.30;;;17.70;;
39218;SDS011;24934;52.752;6.964;2023-04-24T01:01:40;19.80;;;18.10;;
39218;SDS011;24934;52.752;6.964;2023-04-24T01:04:07;19.00;;;17.30;;
39218;SDS011;24934;52.752;6.964;2023-04-24T01:06:34;18.33;;;16.73;;
39218;SDS011;24934;52.752;6.964;2023-04-24T01:09:01;19.10;;;17.60;;
39218;SDS011;24934;52.752;6.964;2023-04-24T01:11:28;17.70;;;16.20;;
39218;SDS011;24934;52.752;6.964;2023-04-24T01:13:54;18.03;;;16.60;;
39218;SDS011;24934;52.752;6.964;2023-04-24T01:16:21;18.27;;;16.73;;
39218;SDS011;24934;52.752;6.964;2023-04-24T01:18:47;18.33;;;16.83;;
39218;SDS011;24934;52.752;6.964;2023-04-24T01:21:13;18.70;;;17.00;;
39218;SDS011;24934;52.752;6.964;2023-04-24T01:23:41;18.63;;;17.07;;
39218;SDS011;24934;52.752;6.964;2023-04-24T01:26:10;20.47;;;18.53;;
39218;SDS011;24934;52.752;6.964;2023-04-24T01:28:36;21.77;;;19.67;;
39218;SDS011;24934;52.752;6.964;2023-04-24T01:31:02;23.23;;;21.03;;
39218;SDS011;24934;52.752;6.964;2023-04-24T01:33:28;22.77;;;20.57;;
39218;SDS011;24934;52.752;6.964;2023-04-24T01:35:54;25.27;;;22.87;;
39218;SDS011;24934;52.752;6.964;2023-04-24T01:38:22;25.33;;;22.80;;
39218;SDS011;24934;52.752;6.964;2023-04-24T01:40:48;27.63;;;24.83;;
39218;SDS011;24934;52.752;6.964;2023-04-24T01:43:17;27.97;;;25.17;;
39218;SDS011;24934;52.752;6.964;2023-04-24T01:45:44;28.63;;;25.77;;
39218;SDS011;24934;52.752;6.964;2023-04-24T01:48:11;30.43;;;26.90;;
39218;SDS011;24934;52.752;6.964;2023-04-24T01:50:40;29.17;;;26.27;;
39218;SDS011;24934;52.752;6.964;2023-04-24T01:53:05;31.40;;;28.37;;
39218;SDS011;24934;52.752;6.964;2023-04-24T01:55:31;30.00;;;27.00;;
39218;SDS011;24934;52.752;6.964;2023-04-24T01:57:57;31.17;;;27.87;;
39218;SDS011;24934;52.752;6.964;2023-04-24T02:00:25;31.13;;;27.83;;
39218;SDS011;24934;52.752;6.964;2023-04-24T02:02:50;30.47;;;27.57;;
39218;SDS011;24934;52.752;6.964;2023-04-24T02:05:16;30.77;;;27.73;;
39218;SDS011;24934;52.752;6.964;2023-04-24T02:07:42;29.20;;;26.27;;
39218;SDS011;24934;52.752;6.964;2023-04-24T02:10:07;29.67;;;26.80;;
39218;SDS011;24934;52.752;6.964;2023-04-24T02:12:34;27.43;;;24.73;;
39218;SDS011;24934;52.752;6.964;2023-04-24T02:14:59;27.37;;;24.73;;
39218;SDS011;24934;52.752;6.964;2023-04-24T02:17:25;26.57;;;24.07;;
39218;SDS011;24934;52.752;6.964;2023-04-24T02:19:51;26.43;;;23.90;;
39218;SDS011;24934;52.752;6.964;2023-04-24T02:22:17;27.87;;;25.17;;
39218;SDS011;24934;52.752;6.964;2023-04-24T02:24:45;26.23;;;23.73;;
39218;SDS011;24934;52.752;6.964;2023-04-24T02:27:10;26.27;;;23.87;;
39218;SDS011;24934;52.752;6.964;2023-04-24T02:29:36;27.77;;;25.13;;
39218;SDS011;24934;52.752;6.964;2023-04-24T02:32:02;27.40;;;24.80;;
39218;SDS011;24934;52.752;6.964;2023-04-24T02:34:31;25.83;;;23.33;;
39218;SDS011;24934;52.752;6.964;2023-04-24T02:36:56;26.23;;;23.73;;
39218;SDS011;24934;52.752;6.964;2023-04-24T02:39:22;23.33;;;21.23;;
39218;SDS011;24934;52.752;6.964;2023-04-24T02:41:47;22.67;;;20.77;;
39218;SDS011;24934;52.752;6.964;2023-04-24T02:44:13;23.10;;;20.90;;
39218;SDS011;24934;52.752;6.964;2023-04-24T02:46:41;22.53;;;20.57;;
39218;SDS011;24934;52.752;6.964;2023-04-24T02:49:10;23.43;;;21.23;;
39218;SDS011;24934;52.752;6.964;2023-04-24T02:51:36;24.37;;;22.30;;
39218;SDS011;24934;52.752;6.964;2023-04-24T02:54:05;23.70;;;21.60;;
39218;SDS011;24934;52.752;6.964;2023-04-24T02:56:35;24.73;;;22.73;;
39218;SDS011;24934;52.752;6.964;2023-04-24T02:59:01;23.33;;;21.37;;
39218;SDS011;24934;52.752;6.964;2023-04-24T03:01:26;21.70;;;19.90;;
39218;SDS011;24934;52.752;6.964;2023-04-24T03:03:52;21.03;;;19.13;;
39218;SDS011;24934;52.752;6.964;2023-04-24T03:06:17;20.33;;;18.67;;
39218;SDS011;24934;52.752;6.964;2023-04-24T03:08:43;20.00;;;18.50;;
39218;SDS011;24934;52.752;6.964;2023-04-24T03:11:09;20.20;;;18.40;;
39218;SDS011;24934;52.752;6.964;2023-04-24T03:13:34;19.93;;;18.43;;
39218;SDS011;24934;52.752;6.964;2023-04-24T03:16:00;20.30;;;18.80;;
39218;SDS011;24934;52.752;6.964;2023-04-24T03:18:26;19.20;;;17.80;;
39218;SDS011;24934;52.752;6.964;2023-04-24T03:20:51;19.13;;;17.53;;
39218;SDS011;24934;52.752;6.964;2023-04-24T03:23:17;20.77;;;18.97;;
39218;SDS011;24934;52.752;6.964;2023-04-24T03:25:43;19.43;;;17.93;;
39218;SDS011;24934;52.752;6.964;2023-04-24T03:28:08;21.50;;;19.37;;
39218;SDS011;24934;52.752;6.964;2023-04-24T03:30:34;20.77;;;18.97;;
39218;SDS011;24934;52.752;6.964;2023-04-24T03:33:00;20.37;;;18.77;;
39218;SDS011;24934;52.752;6.964;2023-04-24T03:35:26;19.97;;;18.37;;
39218;SDS011;24934;52.752;6.964;2023-04-24T03:37:51;21.97;;;20.17;;
39218;SDS011;24934;52.752;6.964;2023-04-24T03:40:17;20.53;;;18.90;;
39218;SDS011;24934;52.752;6.964;2023-04-24T03:42:43;21.27;;;19.57;;
39218;SDS011;24934;52.752;6.964;2023-04-24T03:45:08;20.87;;;19.27;;
39218;SDS011;24934;52.752;6.964;2023-04-24T03:47:34;20.70;;;19.10;;
39218;SDS011;24934;52.752;6.964;2023-04-24T03:50:00;20.67;;;18.97;;
39218;SDS011;24934;52.752;6.964;2023-04-24T03:52:26;21.77;;;19.97;;
39218;SDS011;24934;52.752;6.964;2023-04-24T03:54:52;21.77;;;19.87;;
39218;SDS011;24934;52.752;6.964;2023-04-24T03:57:18;22.53;;;20.33;;
39218;SDS011;24934;52.752;6.964;2023-04-24T03:59:44;23.60;;;21.57;;
39218;SDS011;24934;52.752;6.964;2023-04-24T04:02:10;23.57;;;21.37;;
39218;SDS011;24934;52.752;6.964;2023-04-24T04:04:35;25.23;;;22.90;;
39218;SDS011;24934;52.752;6.964;2023-04-24T04:07:01;25.30;;;23.20;;
39218;SDS011;24934;52.752;6.964;2023-04-24T04:09:28;25.67;;;23.47;;
39218;SDS011;24934;52.752;6.964;2023-04-24T04:11:54;27.40;;;25.00;;
39218;SDS011;24934;52.752;6.964;2023-04-24T04:14:23;28.73;;;26.23;;
39218;SDS011;24934;52.752;6.964;2023-04-24T04:16:48;27.73;;;25.33;;
39218;SDS011;24934;52.752;6.964;2023-04-24T04:19:16;26.80;;;24.43;;
39218;SDS011;24934;52.752;6.964;2023-04-24T04:21:44;26.33;;;24.03;;
39218;SDS011;24934;52.752;6.964;2023-04-24T04:24:11;27.83;;;25.33;;
39218;SDS011;24934;52.752;6.964;2023-04-24T04:26:37;28.40;;;25.50;;
39218;SDS011;24934;52.752;6.964;2023-04-24T04:29:03;27.87;;;24.97;;
39218;SDS011;24934;52.752;6.964;2023-04-24T04:31:29;29.43;;;26.63;;
39218;SDS011;24934;52.752;6.964;2023-04-24T04:33:57;30.70;;;27.80;;
39218;SDS011;24934;52.752;6.964;2023-04-24T04:36:23;32.13;;;28.77;;
39218;SDS011;24934;52.752;6.964;2023-04-24T04:38:50;32.50;;;29.20;;
39218;SDS011;24934;52.752;6.964;2023-04-24T04:41:16;32.30;;;29.00;;
39218;SDS011;24934;52.752;6.964;2023-04-24T04:43:43;32.73;;;29.23;;
39218;SDS011;24934;52.752;6.964;2023-04-24T04:46:08;32.03;;;28.73;;
39218;SDS011;24934;52.752;6.964;2023-04-24T04:48:36;31.73;;;28.53;;
39218;SDS011;24934;52.752;6.964;2023-04-24T04:51:02;31.40;;;28.07;;
39218;SDS011;24934;52.752;6.964;2023-04-24T04:53:27;31.67;;;28.27;;
39218;SDS011;24934;52.752;6.964;2023-04-24T04:55:56;30.70;;;27.70;;
39218;SDS011;24934;52.752;6.964;2023-04-24T04:58:22;29.20;;;26.40;;
39218;SDS011;24934;52.752;6.964;2023-04-24T05:00:47;28.00;;;24.80;;
39218;SDS011;24934;52.752;6.964;2023-04-24T05:03:13;28.27;;;25.53;;
39218;SDS011;24934;52.752;6.964;2023-04-24T05:05:39;27.90;;;25.27;;
39218;SDS011;24934;52.752;6.964;2023-04-24T05:08:06;27.90;;;25.27;;
39218;SDS011;24934;52.752;6.964;2023-04-24T05:10:32;28.57;;;25.77;;
39218;SDS011;24934;52.752;6.964;2023-04-24T05:12:58;29.10;;;26.40;;
39218;SDS011;24934;52.752;6.964;2023-04-24T05:15:26;26.63;;;23.97;;
39218;SDS011;24934;52.752;6.964;2023-04-24T05:17:52;27.43;;;24.83;;
39218;SDS011;24934;52.752;6.964;2023-04-24T05:20:18;27.73;;;25.23;;
39218;SDS011;24934;52.752;6.964;2023-04-24T05:22:43;26.40;;;23.83;;
39218;SDS011;24934;52.752;6.964;2023-04-24T05:25:09;26.33;;;23.73;;
39218;SDS011;24934;52.752;6.964;2023-04-24T05:27:37;25.60;;;23.20;;
39218;SDS011;24934;52.752;6.964;2023-04-24T05:30:06;25.37;;;23.07;;
39218;SDS011;24934;52.752;6.964;2023-04-24T05:32:32;25.17;;;22.97;;
39218;SDS011;24934;52.752;6.964;2023-04-24T05:34:58;22.80;;;20.67;;
39218;SDS011;24934;52.752;6.964;2023-04-24T05:37:23;22.80;;;20.70;;
39218;SDS011;24934;52.752;6.964;2023-04-24T05:39:49;22.10;;;20.00;;
39218;SDS011;24934;52.752;6.964;2023-04-24T05:42:15;21.50;;;19.63;;
39218;SDS011;24934;52.752;6.964;2023-04-24T05:44:40;23.77;;;21.60;;
39218;SDS011;24934;52.752;6.964;2023-04-24T05:47:09;23.57;;;21.57;;
39218;SDS011;24934;52.752;6.964;2023-04-24T05:49:37;25.40;;;23.07;;
39218;SDS011;24934;52.752;6.964;2023-04-24T05:52:03;25.37;;;23.07;;
39218;SDS011;24934;52.752;6.964;2023-04-24T05:54:30;24.70;;;22.43;;
39218;SDS011;24934;52.752;6.964;2023-04-24T05:56:56;23.80;;;21.70;;
39218;SDS011;24934;52.752;6.964;2023-04-24T05:59:21;23.00;;;20.90;;
39218;SDS011;24934;52.752;6.964;2023-04-24T06:01:47;21.93;;;20.03;;
39218;SDS011;24934;52.752;6.964;2023-04-24T06:04:22;20.70;;;18.90;;
39218;SDS011;24934;52.752;6.964;2023-04-24T06:06:47;19.97;;;18.20;;
39218;SDS011;24934;52.752;6.964;2023-04-24T06:09:15;19.50;;;17.97;;
39218;SDS011;24934;52.752;6.964;2023-04-24T06:11:46;19.53;;;18.00;;
39218;SDS011;24934;52.752;6.964;2023-04-24T06:14:12;19.60;;;18.10;;
39218;SDS011;24934;52.752;6.964;2023-04-24T06:16:38;19.80;;;18.20;;
39218;SDS011;24934;52.752;6.964;2023-04-24T06:19:05;20.70;;;18.90;;
39218;SDS011;24934;52.752;6.964;2023-04-24T06:21:33;21.70;;;19.80;;
39218;SDS011;24934;52.752;6.964;2023-04-24T06:23:58;20.70;;;18.90;;
39218;SDS011;24934;52.752;6.964;2023-04-24T06:26:24;21.17;;;19.37;;
39218;SDS011;24934;52.752;6.964;2023-04-24T06:28:51;20.83;;;19.13;;
39218;SDS011;24934;52.752;6.964;2023-04-24T06:31:20;21.83;;;19.93;;
39218;SDS011;24934;52.752;6.964;2023-04-24T06:33:47;23.60;;;21.40;;
39218;SDS011;24934;52.752;6.964;2023-04-24T06:36:14;24.23;;;22.03;;
39218;SDS011;24934;52.752;6.964;2023-04-24T06:38:39;25.03;;;22.57;;
39218;SDS011;24934;52.752;6.964;2023-04-24T06:41:06;26.37;;;23.77;;
39218;SDS011;24934;52.752;6.964;2023-04-24T06:43:32;28.43;;;25.53;;
39218;SDS011;24934;52.752;6.964;2023-04-24T06:45:58;26.90;;;24.10;;
39218;SDS011;24934;52.752;6.964;2023-04-24T06:48:24;27.77;;;24.97;;
39218;SDS011;24934;52.752;6.964;2023-04-24T06:50:50;29.13;;;26.13;;
39218;SDS011;24934;52.752;6.964;2023-04-24T06:53:16;29.23;;;26.20;;
39218;SDS011;24934;52.752;6.964;2023-04-24T06:55:42;28.93;;;25.93;;
39218;SDS011;24934;52.752;6.964;2023-04-24T06:58:12;30.47;;;27.03;;
39218;SDS011;24934;52.752;6.964;2023-04-24T07:00:39;31.83;;;27.63;;
39218;SDS011;24934;52.752;6.964;2023-04-24T07:03:08;36.27;;;30.07;;
39218;SDS011;24934;52.752;6.964;2023-04-24T07:05:33;34.40;;;30.63;;
39218;SDS011;24934;52.752;6.964;2023-04-24T07:08:00;35.47;;;30.97;;
39218;SDS011;24934;52.752;6.964;2023-04-24T07:10:26;37.17;;;31.43;;
39218;SDS011;24934;52.752;6.964;2023-04-24T07:12:53;35.60;;;30.50;;
39218;SDS011;24934;52.752;6.964;2023-04-24T07:15:20;36.90;;;31.17;;
39218;SDS011;24934;52.752;6.964;2023-04-24T07:17:46;38.60;;;30.60;;
39218;SDS011;24934;52.752;6.964;2023-04-24T07:20:11;39.20;;;31.63;;
39218;SDS011;24934;52.752;6.964;2023-04-24T07:22:39;37.40;;;31.17;;
39218;SDS011;24934;52.752;6.964;2023-04-24T07:25:07;40.23;;;32.27;;
39218;SDS011;24934;52.752;6.964;2023-04-24T07:27:33;31.83;;;28.43;;
39218;SDS011;24934;52.752;6.964;2023-04-24T07:29:59;31.50;;;25.50;;
39218;SDS011;24934;52.752;6.964;2023-04-24T07:32:26;26.27;;;23.13;;
39218;SDS011;24934;52.752;6.964;2023-04-24T07:34:51;24.77;;;22.37;;
39218;SDS011;24934;52.752;6.964;2023-04-24T07:37:20;23.50;;;21.20;;
39218;SDS011;24934;52.752;6.964;2023-04-24T07:39:46;26.53;;;23.93;;
39218;SDS011;24934;52.752;6.964;2023-04-24T07:42:13;26.90;;;24.13;;
39218;SDS011;24934;52.752;6.964;2023-04-24T07:44:38;22.93;;;20.93;;
39218;SDS011;24934;52.752;6.964;2023-04-24T07:47:04;22.40;;;20.40;;
39218;SDS011;24934;52.752;6.964;2023-04-24T07:49:30;21.50;;;19.60;;
39218;SDS011;24934;52.752;6.964;2023-04-24T07:51:58;22.80;;;20.70;;
39218;SDS011;24934;52.752;6.964;2023-04-24T07:54:26;21.27;;;19.37;;
39218;SDS011;24934;52.752;6.964;2023-04-24T07:56:52;20.30;;;18.60;;
39218;SDS011;24934;52.752;6.964;2023-04-24T07:59:19;19.43;;;17.83;;
39218;SDS011;24934;52.752;6.964;2023-04-24T08:01:48;19.50;;;17.73;;
39218;SDS011;24934;52.752;6.964;2023-04-24T08:04:14;20.10;;;18.40;;
39218;SDS011;24934;52.752;6.964;2023-04-24T08:06:43;20.37;;;18.47;;
39218;SDS011;24934;52.752;6.964;2023-04-24T08:09:09;21.67;;;19.67;;
39218;SDS011;24934;52.752;6.964;2023-04-24T08:11:34;22.47;;;20.30;;
39218;SDS011;24934;52.752;6.964;2023-04-24T08:14:00;21.37;;;19.43;;
39218;SDS011;24934;52.752;6.964;2023-04-24T08:16:27;20.43;;;18.73;;
39218;SDS011;24934;52.752;6.964;2023-04-24T08:18:53;20.63;;;18.73;;
39218;SDS011;24934;52.752;6.964;2023-04-24T08:21:18;20.63;;;18.83;;
39218;SDS011;24934;52.752;6.964;2023-04-24T08:23:45;22.30;;;20.07;;
39218;SDS011;24934;52.752;6.964;2023-04-24T08:26:14;22.60;;;20.50;;
39218;SDS011;24934;52.752;6.964;2023-04-24T08:28:40;22.40;;;20.23;;
39218;SDS011;24934;52.752;6.964;2023-04-24T08:31:05;22.13;;;20.00;;
39218;SDS011;24934;52.752;6.964;2023-04-24T08:33:31;22.97;;;20.63;;
39218;SDS011;24934;52.752;6.964;2023-04-24T08:36:02;21.87;;;19.83;;
39218;SDS011;24934;52.752;6.964;2023-04-24T08:38:29;20.93;;;18.93;;
39218;SDS011;24934;52.752;6.964;2023-04-24T08:40:56;21.23;;;19.30;;
39218;SDS011;24934;52.752;6.964;2023-04-24T08:43:23;20.20;;;18.27;;
39218;SDS011;24934;52.752;6.964;2023-04-24T08:45:49;20.67;;;18.47;;
39218;SDS011;24934;52.752;6.964;2023-04-24T08:48:16;20.77;;;19.03;;
39218;SDS011;24934;52.752;6.964;2023-04-24T08:50:45;21.00;;;19.13;;
39218;SDS011;24934;52.752;6.964;2023-04-24T08:53:12;21.03;;;19.23;;
39218;SDS011;24934;52.752;6.964;2023-04-24T08:55:38;20.30;;;18.47;;
39218;SDS011;24934;52.752;6.964;2023-04-24T08:58:05;21.63;;;19.37;;
39218;SDS011;24934;52.752;6.964;2023-04-24T09:00:31;21.73;;;19.67;;
39218;SDS011;24934;52.752;6.964;2023-04-24T09:03:00;21.60;;;19.50;;
39218;SDS011;24934;52.752;6.964;2023-04-24T09:05:27;21.60;;;19.50;;
39218;SDS011;24934;52.752;6.964;2023-04-24T09:07:54;21.63;;;18.37;;
39218;SDS011;24934;52.752;6.964;2023-04-24T09:10:21;20.57;;;18.43;;
39218;SDS011;24934;52.752;6.964;2023-04-24T09:12:51;21.00;;;18.90;;
39218;SDS011;24934;52.752;6.964;2023-04-24T09:15:18;24.17;;;21.60;;
39218;SDS011;24934;52.752;6.964;2023-04-24T09:17:45;27.40;;;22.67;;
39218;SDS011;24934;52.752;6.964;2023-04-24T09:20:11;28.70;;;25.47;;
39218;SDS011;24934;52.752;6.964;2023-04-24T09:22:37;37.33;;;27.13;;
39218;SDS011;24934;52.752;6.964;2023-04-24T09:25:04;40.77;;;28.50;;
39218;SDS011;24934;52.752;6.964;2023-04-24T09:27:32;39.13;;;29.67;;
39218;SDS011;24934;52.752;6.964;2023-04-24T09:29:58;51.53;;;30.83;;
39218;SDS011;24934;52.752;6.964;2023-04-24T09:32:27;40.20;;;30.73;;
39218;SDS011;24934;52.752;6.964;2023-04-24T09:37:42;41.97;;;30.83;;
39218;SDS011;24934;52.752;6.964;2023-04-24T09:40:12;43.03;;;31.63;;
39218;SDS011;24934;52.752;6.964;2023-04-24T09:42:46;43.43;;;31.77;;
39218;SDS011;24934;52.752;6.964;2023-04-24T09:45:20;48.47;;;32.77;;
39218;SDS011;24934;52.752;6.964;2023-04-24T09:47:46;43.80;;;32.77;;
39218;SDS011;24934;52.752;6.964;2023-04-24T09:50:18;47.33;;;33.60;;
39218;SDS011;24934;52.752;6.964;2023-04-24T09:52:56;50.37;;;35.17;;
39218;SDS011;24934;52.752;6.964;2023-04-24T09:55:23;59.83;;;37.47;;
39218;SDS011;24934;52.752;6.964;2023-04-24T10:00:22;73.07;;;42.37;;
39218;SDS011;24934;52.752;6.964;2023-04-24T10:05:32;72.43;;;44.90;;
39218;SDS011;24934;52.752;6.964;2023-04-24T10:08:06;75.80;;;43.77;;
39218;SDS011;24934;52.752;6.964;2023-04-24T10:10:37;68.67;;;43.23;;
39218;SDS011;24934;52.752;6.964;2023-04-24T10:13:11;68.90;;;43.33;;
39218;SDS011;24934;52.752;6.964;2023-04-24T10:15:38;70.10;;;43.87;;
39218;SDS011;24934;52.752;6.964;2023-04-24T10:18:05;71.53;;;43.50;;
39218;SDS011;24934;52.752;6.964;2023-04-24T10:20:31;65.23;;;42.07;;
39218;SDS011;24934;52.752;6.964;2023-04-24T10:22:58;60.93;;;40.87;;
39218;SDS011;24934;52.752;6.964;2023-04-24T10:25:26;59.47;;;41.27;;
39218;SDS011;24934;52.752;6.964;2023-04-24T10:27:54;55.87;;;39.73;;
39218;SDS011;24934;52.752;6.964;2023-04-24T10:30:23;57.73;;;40.37;;
39218;SDS011;24934;52.752;6.964;2023-04-24T10:33:02;62.23;;;39.20;;
39218;SDS011;24934;52.752;6.964;2023-04-24T10:35:34;52.03;;;37.90;;
39218;SDS011;24934;52.752;6.964;2023-04-24T10:38:06;48.73;;;35.77;;
39218;SDS011;24934;52.752;6.964;2023-04-24T10:40:35;50.07;;;34.53;;
39218;SDS011;24934;52.752;6.964;2023-04-24T10:43:02;51.40;;;36.53;;
39218;SDS011;24934;52.752;6.964;2023-04-24T10:45:39;50.23;;;35.63;;
39218;SDS011;24934;52.752;6.964;2023-04-24T10:48:06;50.50;;;36.60;;
39218;SDS011;24934;52.752;6.964;2023-04-24T10:50:43;51.57;;;36.17;;
39218;SDS011;24934;52.752;6.964;2023-04-24T10:53:16;50.23;;;36.03;;
39218;SDS011;24934;52.752;6.964;2023-04-24T10:55:47;48.17;;;35.97;;
39218;SDS011;24934;52.752;6.964;2023-04-24T10:58:23;49.57;;;36.50;;
39218;SDS011;24934;52.752;6.964;2023-04-24T11:00:57;53.57;;;35.97;;
39218;SDS011;24934;52.752;6.964;2023-04-24T11:03:30;52.57;;;36.80;;
39218;SDS011;24934;52.752;6.964;2023-04-24T11:05:58;50.20;;;35.70;;
39218;SDS011;24934;52.752;6.964;2023-04-24T11:11:11;48.23;;;32.53;;
39218;SDS011;24934;52.752;6.964;2023-04-24T11:18:59;38.10;;;27.17;;
39218;SDS011;24934;52.752;6.964;2023-04-24T11:21:30;38.53;;;25.07;;
39218;SDS011;24934;52.752;6.964;2023-04-24T11:29:59;30.63;;;23.93;;
39218;SDS011;24934;52.752;6.964;2023-04-24T11:35:02;32.33;;;22.67;;
39218;SDS011;24934;52.752;6.964;2023-04-24T11:37:37;37.67;;;23.50;;
39218;SDS011;24934;52.752;6.964;2023-04-24T11:40:05;33.70;;;23.43;;
39218;SDS011;24934;52.752;6.964;2023-04-24T11:42:33;25.53;;;22.80;;
39218;SDS011;24934;52.752;6.964;2023-04-24T11:45:10;28.97;;;23.40;;
39218;SDS011;24934;52.752;6.964;2023-04-24T11:47:36;39.10;;;24.13;;
39218;SDS011;24934;52.752;6.964;2023-04-24T11:50:03;40.20;;;23.40;;
39218;SDS011;24934;52.752;6.964;2023-04-24T11:52:30;26.37;;;22.63;;
39218;SDS011;24934;52.752;6.964;2023-04-24T11:54:56;32.50;;;23.47;;
39218;SDS011;24934;52.752;6.964;2023-04-24T11:57:23;30.03;;;21.80;;
39218;SDS011;24934;52.752;6.964;2023-04-24T11:59:52;29.50;;;20.40;;
39218;SDS011;24934;52.752;6.964;2023-04-24T12:02:25;25.93;;;19.87;;
39218;SDS011;24934;52.752;6.964;2023-04-24T12:04:52;28.50;;;19.53;;
39218;SDS011;24934;52.752;6.964;2023-04-24T12:07:18;29.20;;;19.37;;
39218;SDS011;24934;52.752;6.964;2023-04-24T12:09:45;23.40;;;19.10;;
39218;SDS011;24934;52.752;6.964;2023-04-24T12:12:12;30.90;;;18.90;;
39218;SDS011;24934;52.752;6.964;2023-04-24T12:14:48;19.93;;;17.90;;
39218;SDS011;24934;52.752;6.964;2023-04-24T12:17:15;27.47;;;19.13;;
39218;SDS011;24934;52.752;6.964;2023-04-24T12:19:49;25.27;;;18.57;;
39218;SDS011;24934;52.752;6.964;2023-04-24T12:22:15;24.10;;;17.80;;
39218;SDS011;24934;52.752;6.964;2023-04-24T12:27:23;21.10;;;18.53;;
39218;SDS011;24934;52.752;6.964;2023-04-24T12:29:53;22.40;;;18.07;;
39218;SDS011;24934;52.752;6.964;2023-04-24T12:32:24;22.80;;;18.50;;
39218;SDS011;24934;52.752;6.964;2023-04-24T12:34:53;19.60;;;17.50;;
39218;SDS011;24934;52.752;6.964;2023-04-24T12:37:21;21.30;;;17.53;;
39218;SDS011;24934;52.752;6.964;2023-04-24T12:40:03;21.17;;;17.63;;
39218;SDS011;24934;52.752;6.964;2023-04-24T12:42:31;19.37;;;17.37;;
39218;SDS011;24934;52.752;6.964;2023-04-24T12:44:58;18.60;;;16.73;;
39218;SDS011;24934;52.752;6.964;2023-04-24T12:47:26;19.10;;;17.07;;
39218;SDS011;24934;52.752;6.964;2023-04-24T12:49:52;21.57;;;17.70;;
39218;SDS011;24934;52.752;6.964;2023-04-24T12:52:20;20.77;;;16.60;;
39218;SDS011;24934;52.752;6.964;2023-04-24T12:54:49;22.00;;;17.30;;
39218;SDS011;24934;52.752;6.964;2023-04-24T12:57:16;19.33;;;16.40;;
39218;SDS011;24934;52.752;6.964;2023-04-24T12:59:42;19.67;;;16.50;;
39218;SDS011;24934;52.752;6.964;2023-04-24T13:02:10;18.90;;;16.43;;
39218;SDS011;24934;52.752;6.964;2023-04-24T13:04:42;19.17;;;16.30;;
39218;SDS011;24934;52.752;6.964;2023-04-24T13:07:08;22.47;;;17.77;;
39218;SDS011;24934;52.752;6.964;2023-04-24T13:09:34;21.43;;;16.83;;
39218;SDS011;24934;52.752;6.964;2023-04-24T13:12:00;18.07;;;16.10;;
39218;SDS011;24934;52.752;6.964;2023-04-24T13:14:26;17.63;;;15.80;;
39218;SDS011;24934;52.752;6.964;2023-04-24T13:16:52;18.43;;;15.50;;
39218;SDS011;24934;52.752;6.964;2023-04-24T13:19:17;18.23;;;14.83;;
39218;SDS011;24934;52.752;6.964;2023-04-24T13:21:43;16.00;;;14.40;;
39218;SDS011;24934;52.752;6.964;2023-04-24T13:24:09;15.30;;;13.90;;
39218;SDS011;24934;52.752;6.964;2023-04-24T13:26:35;15.40;;;14.00;;
39218;SDS011;24934;52.752;6.964;2023-04-24T13:29:00;15.70;;;14.03;;
39218;SDS011;24934;52.752;6.964;2023-04-24T13:31:29;15.17;;;13.90;;
39218;SDS011;24934;52.752;6.964;2023-04-24T13:33:54;15.57;;;14.33;;
39218;SDS011;24934;52.752;6.964;2023-04-24T13:36:23;16.03;;;14.70;;
39218;SDS011;24934;52.752;6.964;2023-04-24T13:38:48;16.37;;;14.87;;
39218;SDS011;24934;52.752;6.964;2023-04-24T13:41:14;16.20;;;14.57;;
39218;SDS011;24934;52.752;6.964;2023-04-24T13:43:40;16.40;;;14.70;;
39218;SDS011;24934;52.752;6.964;2023-04-24T13:46:07;16.07;;;14.67;;
39218;SDS011;24934;52.752;6.964;2023-04-24T13:48:33;19.07;;;14.90;;
39218;SDS011;24934;52.752;6.964;2023-04-24T13:50:59;16.70;;;15.10;;
39218;SDS011;24934;52.752;6.964;2023-04-24T13:53:25;16.60;;;15.00;;
39218;SDS011;24934;52.752;6.964;2023-04-24T13:55:50;16.67;;;15.07;;
39218;SDS011;24934;52.752;6.964;2023-04-24T13:58:18;18.00;;;14.30;;
39218;SDS011;24934;52.752;6.964;2023-04-24T14:00:44;15.60;;;14.30;;
39218;SDS011;24934;52.752;6.964;2023-04-24T14:03:10;17.00;;;15.20;;
39218;SDS011;24934;52.752;6.964;2023-04-24T14:05:36;16.23;;;14.67;;
39218;SDS011;24934;52.752;6.964;2023-04-24T14:08:01;16.30;;;14.63;;
39218;SDS011;24934;52.752;6.964;2023-04-24T14:10:27;16.67;;;14.97;;
39218;SDS011;24934;52.752;6.964;2023-04-24T14:12:53;16.33;;;14.50;;
39218;SDS011;24934;52.752;6.964;2023-04-24T14:15:18;16.43;;;14.80;;
39218;SDS011;24934;52.752;6.964;2023-04-24T14:17:44;16.27;;;14.33;;
39218;SDS011;24934;52.752;6.964;2023-04-24T14:20:12;16.40;;;14.80;;
39218;SDS011;24934;52.752;6.964;2023-04-24T14:22:38;16.70;;;14.63;;
39218;SDS011;24934;52.752;6.964;2023-04-24T14:25:06;14.80;;;13.70;;
39218;SDS011;24934;52.752;6.964;2023-04-24T14:27:32;16.03;;;14.57;;
39218;SDS011;24934;52.752;6.964;2023-04-24T14:30:02;16.83;;;15.13;;
39218;SDS011;24934;52.752;6.964;2023-04-24T14:32:28;17.57;;;15.67;;
39218;SDS011;24934;52.752;6.964;2023-04-24T14:34:53;18.70;;;17.00;;
39218;SDS011;24934;52.752;6.964;2023-04-24T14:37:22;19.87;;;18.07;;
39218;SDS011;24934;52.752;6.964;2023-04-24T14:39:47;20.90;;;18.77;;
39218;SDS011;24934;52.752;6.964;2023-04-24T14:42:13;22.13;;;19.43;;
39218;SDS011;24934;52.752;6.964;2023-04-24T14:44:39;19.93;;;18.03;;
39218;SDS011;24934;52.752;6.964;2023-04-24T14:47:04;20.57;;;18.03;;